createdAt,value
2022-09-24T00:00:00.855Z,6.22
2022-09-24T00:01:00.852Z,6.06
2022-09-24T00:02:00.916Z,6.22
2022-09-24T00:03:00.889Z,6.06
2022-09-24T00:04:00.935Z,6.39
2022-09-24T00:05:00.853Z,6.22
2022-09-24T00:06:00.879Z,5.94
2022-09-24T00:07:00.861Z,6.39
2022-09-24T00:08:00.861Z,6.22
2022-09-24T00:09:00.863Z,6.06
2022-09-24T00:10:00.857Z,6.22
2022-09-24T00:11:00.854Z,6.22
2022-09-24T00:12:00.868Z,5.94
2022-09-24T00:13:00.860Z,6.06
2022-09-24T00:14:00.993Z,6.39
2022-09-24T00:15:00.875Z,6.39
2022-09-24T00:16:00.905Z,6.06
2022-09-24T00:17:00.863Z,6.22
2022-09-24T00:18:00.866Z,6.22
2022-09-24T00:19:00.865Z,6.06
2022-09-24T00:20:00.889Z,6.06
2022-09-24T00:21:00.868Z,5.94
2022-09-24T00:22:00.887Z,6.06
2022-09-24T00:23:00.866Z,6.22
2022-09-24T00:24:00.928Z,6.06
2022-09-24T00:25:00.867Z,6.22
2022-09-24T00:26:00.871Z,6.22
2022-09-24T00:27:00.859Z,6.22
2022-09-24T00:28:00.870Z,6.39
2022-09-24T00:29:00.881Z,6.39
2022-09-24T00:30:00.877Z,6.5
2022-09-24T00:31:00.894Z,6.5
2022-09-24T00:32:00.878Z,6.67
2022-09-24T00:33:00.870Z,6.5
2022-09-24T00:34:00.977Z,6.67
2022-09-24T00:35:00.871Z,6.67
2022-09-24T00:36:00.868Z,6.67
2022-09-24T00:37:00.885Z,6.39
2022-09-24T00:38:00.889Z,6.67
2022-09-24T00:39:00.874Z,6.5
2022-09-24T00:40:00.873Z,6.67
2022-09-24T00:41:00.864Z,6.67
2022-09-24T00:42:00.867Z,6.67
2022-09-24T00:43:00.883Z,6.5
2022-09-24T00:44:00.931Z,6.5
2022-09-24T00:45:00.874Z,6.22
2022-09-24T00:46:00.881Z,6.22
2022-09-24T00:47:00.922Z,6.22
2022-09-24T00:48:00.867Z,6.22
2022-09-24T00:49:00.879Z,6.06
2022-09-24T00:50:00.882Z,5.78
2022-09-24T00:51:00.879Z,6.06
2022-09-24T00:52:00.885Z,6.22
2022-09-24T00:53:00.876Z,6.06
2022-09-24T00:54:00.989Z,6.06
2022-09-24T00:55:00.870Z,6.06
2022-09-24T00:56:00.887Z,6.06
2022-09-24T00:57:00.885Z,6.06
2022-09-24T00:58:00.883Z,5.94
2022-09-24T00:59:00.882Z,6.22
2022-09-24T01:00:00.884Z,6.22
2022-09-24T01:01:00.927Z,6.06
2022-09-24T01:02:00.943Z,6.22
2022-09-24T01:03:00.884Z,6.22
2022-09-24T01:04:00.931Z,6.06
2022-09-24T01:05:00.875Z,6.22
2022-09-24T01:06:00.885Z,6.22
2022-09-24T01:07:00.881Z,6.22
2022-09-24T01:08:00.895Z,5.94
2022-09-24T01:09:00.891Z,6.06
2022-09-24T01:10:00.905Z,5.94
2022-09-24T01:11:00.882Z,5.67
2022-09-24T01:12:00.881Z,5.56
2022-09-24T01:13:00.879Z,5.78
2022-09-24T01:14:00.938Z,6.06
2022-09-24T01:15:00.878Z,5.94
2022-09-24T01:16:00.960Z,6.22
2022-09-24T01:17:00.893Z,6.06
2022-09-24T01:18:00.894Z,6.5
2022-09-24T01:19:00.891Z,6.22
2022-09-24T01:20:00.889Z,6.22
2022-09-24T01:21:00.890Z,6.06
2022-09-24T01:22:00.882Z,6.06
2022-09-24T01:23:00.896Z,6.06
2022-09-24T01:24:00.942Z,5.78
2022-09-24T01:25:00.888Z,5.94
2022-09-24T01:26:00.916Z,6.22
2022-09-24T01:27:00.891Z,6.06
2022-09-24T01:28:00.889Z,6.22
2022-09-24T01:29:00.887Z,6.06
2022-09-24T01:30:00.899Z,6.22
2022-09-24T01:31:00.957Z,5.78
2022-09-24T01:32:00.899Z,6.22
2022-09-24T01:33:00.897Z,6.06
2022-09-24T01:34:00.946Z,6.06
2022-09-24T01:35:00.888Z,6.06
2022-09-24T01:36:00.893Z,6.22
2022-09-24T01:37:00.899Z,6.22
2022-09-24T01:38:00.883Z,6.06
2022-09-24T01:39:00.893Z,6.5
2022-09-24T01:40:00.895Z,6.39
2022-09-24T01:41:00.903Z,6.67
2022-09-24T01:42:00.930Z,6.67
2022-09-24T01:43:00.890Z,6.67
2022-09-24T01:44:00.904Z,6.67
2022-09-24T01:45:00.894Z,6.67
2022-09-24T01:46:00.902Z,6.06
2022-09-24T01:47:00.953Z,6.5
2022-09-24T01:48:00.900Z,6.67
2022-09-24T01:49:00.896Z,6.67
2022-09-24T01:50:00.902Z,6.67
2022-09-24T01:51:00.898Z,6.67
2022-09-24T01:52:00.897Z,6.67
2022-09-24T01:53:00.891Z,6.67
2022-09-24T01:54:00.912Z,6.67
2022-09-24T01:55:00.896Z,6.78
2022-09-24T01:56:00.900Z,6.67
2022-09-24T01:57:00.905Z,6.67
2022-09-24T01:58:01.008Z,6.67
2022-09-24T01:59:00.899Z,6.67
2022-09-24T02:00:00.903Z,6.67
2022-09-24T02:01:00.911Z,6.67
2022-09-24T02:02:00.953Z,6.67
2022-09-24T02:03:00.909Z,6.67
2022-09-24T02:04:00.919Z,6.67
2022-09-24T02:05:00.903Z,6.67
2022-09-24T02:06:00.918Z,6.67
2022-09-24T02:07:00.901Z,6.67
2022-09-24T02:08:00.906Z,6.67
2022-09-24T02:09:00.905Z,6.67
2022-09-24T02:10:00.904Z,6.67
2022-09-24T02:11:00.911Z,6.67
2022-09-24T02:12:00.910Z,6.67
2022-09-24T02:13:00.922Z,6.67
2022-09-24T02:14:00.952Z,6.67
2022-09-24T02:15:00.904Z,6.39
2022-09-24T02:16:00.969Z,6.94
2022-09-24T02:17:00.910Z,6.78
2022-09-24T02:18:00.914Z,6.94
2022-09-24T02:19:00.913Z,6.78
2022-09-24T02:20:00.914Z,6.67
2022-09-24T02:21:00.908Z,6.67
2022-09-24T02:22:00.909Z,6.67
2022-09-24T02:23:00.908Z,6.5
2022-09-24T02:24:00.955Z,6.39
2022-09-24T02:25:00.905Z,6.5
2022-09-24T02:26:00.912Z,6.5
2022-09-24T02:27:00.912Z,6.39
2022-09-24T02:28:00.912Z,6.39
2022-09-24T02:29:00.912Z,6.06
2022-09-24T02:30:00.985Z,5.78
2022-09-24T02:31:00.982Z,6.06
2022-09-24T02:32:00.918Z,6.22
2022-09-24T02:33:00.907Z,6.22
2022-09-24T02:34:00.963Z,6.22
2022-09-24T02:35:00.911Z,6.22
2022-09-24T02:36:00.910Z,6.22
2022-09-24T02:37:00.904Z,5.78
2022-09-24T02:38:05.489Z,6.06
2022-09-24T02:39:00.906Z,6.22
2022-09-24T02:40:00.914Z,6.39
2022-09-24T02:41:00.915Z,6.22
2022-09-24T02:42:00.918Z,6.22
2022-09-24T02:43:00.912Z,6.22
2022-09-24T02:44:00.991Z,6.06
2022-09-24T02:45:00.929Z,5.78
2022-09-24T02:46:01.055Z,6.06
2022-09-24T02:47:00.921Z,5.94
2022-09-24T02:48:00.926Z,6.22
2022-09-24T02:49:00.915Z,6.22
2022-09-24T02:50:00.942Z,5.78
2022-09-24T02:51:00.920Z,6.06
2022-09-24T02:52:00.924Z,6.22
2022-09-24T02:53:00.918Z,6.22
2022-09-24T02:54:00.972Z,6.22
2022-09-24T02:55:00.928Z,6.5
2022-09-24T02:56:00.926Z,6.22
2022-09-24T02:57:00.913Z,6.67
2022-09-24T02:58:00.921Z,6.5
2022-09-24T02:59:00.918Z,6.67
2022-09-24T03:00:00.923Z,6.67
2022-09-24T03:01:00.929Z,6.67
2022-09-24T03:02:01.050Z,6.39
2022-09-24T03:03:00.956Z,6.5
2022-09-24T03:04:00.995Z,6.67
2022-09-24T03:05:00.929Z,6.5
2022-09-24T03:06:00.944Z,6.78
2022-09-24T03:07:00.922Z,6.94
2022-09-24T03:08:00.925Z,6.94
2022-09-24T03:09:00.927Z,7.11
2022-09-24T03:10:00.921Z,6.94
2022-09-24T03:11:00.922Z,6.94
2022-09-24T03:12:00.965Z,6.94
2022-09-24T03:13:00.919Z,6.67
2022-09-24T03:14:00.927Z,6.94
2022-09-24T03:15:00.926Z,6.78
2022-09-24T03:16:00.964Z,6.94
2022-09-24T03:17:00.922Z,6.67
2022-09-24T03:18:00.948Z,6.67
2022-09-24T03:19:00.918Z,6.67
2022-09-24T03:20:00.925Z,6.67
2022-09-24T03:21:00.929Z,6.67
2022-09-24T03:22:00.920Z,6.39
2022-09-24T03:23:00.931Z,6.22
2022-09-24T03:24:00.988Z,6.06
2022-09-24T03:25:00.926Z,5.78
2022-09-24T03:26:00.922Z,6.06
2022-09-24T03:27:00.924Z,6.22
2022-09-24T03:28:00.928Z,6.22
2022-09-24T03:29:00.945Z,6.22
2022-09-24T03:30:00.926Z,6.22
2022-09-24T03:31:01.060Z,6.06
2022-09-24T03:32:00.929Z,6.22
2022-09-24T03:33:00.934Z,5.94
2022-09-24T03:34:01.061Z,6.06
2022-09-24T03:35:00.931Z,6.22
2022-09-24T03:36:00.925Z,6.22
2022-09-24T03:37:00.925Z,6.22
2022-09-24T03:38:00.924Z,6.06
2022-09-24T03:39:00.926Z,5.94
2022-09-24T03:40:00.930Z,5.56
2022-09-24T03:41:00.930Z,5.94
2022-09-24T03:42:00.936Z,6.06
2022-09-24T03:43:00.927Z,6.06
2022-09-24T03:44:01.003Z,6.22
2022-09-24T03:45:00.926Z,6.22
2022-09-24T03:46:01.013Z,6.22
2022-09-24T03:47:00.931Z,6.22
2022-09-24T03:48:00.935Z,6.06
2022-09-24T03:49:00.929Z,6.22
2022-09-24T03:50:00.952Z,6.39
2022-09-24T03:51:00.940Z,6.22
2022-09-24T03:52:00.921Z,6.06
2022-09-24T03:53:00.933Z,6.22
2022-09-24T03:54:01.021Z,6.22
2022-09-24T03:55:00.930Z,6.06
2022-09-24T03:56:00.933Z,5.56
2022-09-24T03:57:00.935Z,5.94
2022-09-24T03:58:00.939Z,5.67
2022-09-24T03:59:00.930Z,5.56
2022-09-24T04:00:00.931Z,5.78
2022-09-24T04:01:00.935Z,5.39
2022-09-24T04:02:01.052Z,5.67
2022-09-24T04:03:00.988Z,5.67
2022-09-24T04:04:00.983Z,6.22
2022-09-24T04:05:00.941Z,6.22
2022-09-24T04:06:01.046Z,6.22
2022-09-24T04:07:00.927Z,5.78
2022-09-24T04:08:00.940Z,5.56
2022-09-24T04:09:00.930Z,5.78
2022-09-24T04:10:00.949Z,5.78
2022-09-24T04:11:00.944Z,5.78
2022-09-24T04:12:00.938Z,5.78
2022-09-24T04:13:00.935Z,5.78
2022-09-24T04:14:01.065Z,5.78
2022-09-24T04:15:00.938Z,5.78
2022-09-24T04:16:01.023Z,5.67
2022-09-24T04:17:00.936Z,5.78
2022-09-24T04:18:00.935Z,6.06
2022-09-24T04:19:00.936Z,5.94
2022-09-24T04:20:00.939Z,5.94
2022-09-24T04:21:00.940Z,5.78
2022-09-24T04:22:00.969Z,5.78
2022-09-24T04:23:00.944Z,5.78
2022-09-24T04:24:00.994Z,5.78
2022-09-24T04:25:00.947Z,5.56
2022-09-24T04:26:00.941Z,5.56
2022-09-24T04:27:00.950Z,5.78
2022-09-24T04:28:00.944Z,5.56
2022-09-24T04:29:00.946Z,5.78
2022-09-24T04:30:00.949Z,5.67
2022-09-24T04:31:00.981Z,5.78
2022-09-24T04:32:00.953Z,5.56
2022-09-24T04:33:00.945Z,5.67
2022-09-24T04:34:00.966Z,5.78
2022-09-24T04:35:04.204Z,5.67
2022-09-24T04:36:00.949Z,5.78
2022-09-24T04:37:00.958Z,5.78
2022-09-24T04:38:00.964Z,5.67
2022-09-24T04:39:00.950Z,5.67
2022-09-24T04:40:00.944Z,5.67
2022-09-24T04:41:00.953Z,5.67
2022-09-24T04:42:00.948Z,5.39
2022-09-24T04:43:00.955Z,5.78
2022-09-24T04:44:01.031Z,5.67
2022-09-24T04:45:00.956Z,5.67
2022-09-24T04:46:01.048Z,5.78
2022-09-24T04:47:01.050Z,5.78
2022-09-24T04:48:00.961Z,5.78
2022-09-24T04:49:01.042Z,6.06
2022-09-24T04:50:00.956Z,6.22
2022-09-24T04:51:00.951Z,5.94
2022-09-24T04:52:00.957Z,6.06
2022-09-24T04:53:00.956Z,6.22
2022-09-24T04:54:00.984Z,6.39
2022-09-24T04:55:00.951Z,6.22
2022-09-24T04:56:00.967Z,6.22
2022-09-24T04:57:00.954Z,6.22
2022-09-24T04:58:00.967Z,6.22
2022-09-24T04:59:00.951Z,5.67
2022-09-24T05:00:00.962Z,5.78
2022-09-24T05:01:00.963Z,5.56
2022-09-24T05:02:03.823Z,5.56
2022-09-24T05:03:01.050Z,5.78
2022-09-24T05:04:00.964Z,5.39
2022-09-24T05:05:00.963Z,5.56
2022-09-24T05:06:00.965Z,5.39
2022-09-24T05:07:00.955Z,5.78
2022-09-24T05:08:00.961Z,5.78
2022-09-24T05:09:00.993Z,5.78
2022-09-24T05:10:00.976Z,5.94
2022-09-24T05:11:00.966Z,6.06
2022-09-24T05:12:00.964Z,6.06
2022-09-24T05:13:00.962Z,5.67
2022-09-24T05:14:00.961Z,5.56
2022-09-24T05:15:00.961Z,6.06
2022-09-24T05:16:01.197Z,5.67
2022-09-24T05:17:00.978Z,5.56
2022-09-24T05:18:00.966Z,5.78
2022-09-24T05:19:01.053Z,5.56
2022-09-24T05:20:00.959Z,5.67
2022-09-24T05:21:00.967Z,5.22
2022-09-24T05:22:00.962Z,5.39
2022-09-24T05:23:00.963Z,5.56
2022-09-24T05:24:00.967Z,5.78
2022-09-24T05:25:00.977Z,5.56
2022-09-24T05:26:01.072Z,5.67
2022-09-24T05:27:00.968Z,6.22
2022-09-24T05:28:00.967Z,6.06
2022-09-24T05:29:01.046Z,6.06
2022-09-24T05:30:00.962Z,5.94
2022-09-24T05:31:00.989Z,6.06
2022-09-24T05:32:00.964Z,5.78
2022-09-24T05:33:00.962Z,5.94
2022-09-24T05:34:00.961Z,6.06
2022-09-24T05:35:00.967Z,5.78
2022-09-24T05:36:00.971Z,5.39
2022-09-24T05:37:00.971Z,5.56
2022-09-24T05:38:00.964Z,5.67
2022-09-24T05:39:01.054Z,5.56
2022-09-24T05:40:00.970Z,5.39
2022-09-24T05:41:01.011Z,5.78
2022-09-24T05:42:01.070Z,5.67
2022-09-24T05:43:00.977Z,5.67
2022-09-24T05:44:00.970Z,5.94
2022-09-24T05:45:00.969Z,5.78
2022-09-24T05:46:01.014Z,5.56
2022-09-24T05:47:01.064Z,5.94
2022-09-24T05:48:00.965Z,5.94
2022-09-24T05:49:01.054Z,5.78
2022-09-24T05:50:00.966Z,6.06
2022-09-24T05:51:00.966Z,6.39
2022-09-24T05:52:00.962Z,6.5
2022-09-24T05:53:00.969Z,6.78
2022-09-24T05:54:00.967Z,7.5
2022-09-24T05:55:00.965Z,7.5
2022-09-24T05:56:00.967Z,7.78
2022-09-24T05:57:00.980Z,7.78
2022-09-24T05:58:00.994Z,7.67
2022-09-24T05:59:01.130Z,7.5
2022-09-24T06:00:00.976Z,7.5
2022-09-24T06:01:00.973Z,7.78
2022-09-24T06:02:01.013Z,8.39
2022-09-24T06:03:01.073Z,8.78
2022-09-24T06:04:04.732Z,8.94
2022-09-24T06:05:00.970Z,9.06
2022-09-24T06:06:00.976Z,9.06
2022-09-24T06:07:00.974Z,8.94
2022-09-24T06:08:00.981Z,8.39
2022-09-24T06:09:01.031Z,8.5
2022-09-24T06:10:00.985Z,8.28
2022-09-24T06:11:00.980Z,8.78
2022-09-24T06:12:00.985Z,9.06
2022-09-24T06:13:00.976Z,9.44
2022-09-24T06:14:01.002Z,10.33
2022-09-24T06:15:00.988Z,11.06
2022-09-24T06:16:01.034Z,12.06
2022-09-24T06:17:00.973Z,12.67
2022-09-24T06:18:00.971Z,13.11
2022-09-24T06:19:01.065Z,13.28
2022-09-24T06:20:00.979Z,13.44
2022-09-24T06:21:00.975Z,13.56
2022-09-24T06:22:00.973Z,14.06
2022-09-24T06:23:00.980Z,13.89
2022-09-24T06:24:00.978Z,13.44
2022-09-24T06:25:00.973Z,13.44
2022-09-24T06:26:00.983Z,13.72
2022-09-24T06:27:00.972Z,13.56
2022-09-24T06:28:01.031Z,13.44
2022-09-24T06:29:04.803Z,13.56
2022-09-24T06:30:01.011Z,13.28
2022-09-24T06:31:01.032Z,13.11
2022-09-24T06:32:00.978Z,12.39
2022-09-24T06:33:00.978Z,12.06
2022-09-24T06:34:00.977Z,11.56
2022-09-24T06:35:00.978Z,11.06
2022-09-24T06:36:00.973Z,10.94
2022-09-24T06:37:00.977Z,10.94
2022-09-24T06:38:00.981Z,9.94
2022-09-24T06:39:01.054Z,10.17
2022-09-24T06:40:00.976Z,9.72
2022-09-24T06:41:01.051Z,10
2022-09-24T06:42:00.966Z,10
2022-09-24T06:43:00.983Z,10.17
2022-09-24T06:44:00.980Z,10.33
2022-09-24T06:45:00.978Z,10.17
2022-09-24T06:46:01.018Z,10.61
2022-09-24T06:47:01.035Z,10.5
2022-09-24T06:48:00.970Z,11.06
2022-09-24T06:49:01.015Z,11.22
2022-09-24T06:50:00.983Z,11.22
2022-09-24T06:51:00.985Z,10.78
2022-09-24T06:52:00.978Z,10.78
2022-09-24T06:53:00.991Z,10.61
2022-09-24T06:54:00.983Z,10.17
2022-09-24T06:55:00.989Z,9.72
2022-09-24T06:56:00.983Z,9.89
2022-09-24T06:57:00.980Z,9.89
2022-09-24T06:58:00.983Z,10.17
2022-09-24T06:59:00.980Z,10.17
2022-09-24T07:00:00.981Z,9.72
2022-09-24T07:01:01.040Z,9.89
2022-09-24T07:02:01.109Z,9.89
2022-09-24T07:03:00.983Z,9.89
2022-09-24T07:04:00.982Z,9.72
2022-09-24T07:05:00.987Z,10.17
2022-09-24T07:06:00.983Z,9.44
2022-09-24T07:07:00.992Z,9.72
2022-09-24T07:08:00.983Z,9.61
2022-09-24T07:09:00.986Z,9.72
2022-09-24T07:10:00.983Z,9.61
2022-09-24T07:11:00.983Z,9.61
2022-09-24T07:12:00.993Z,9.67
2022-09-24T07:13:01.000Z,9.61
2022-09-24T07:14:00.987Z,9.39
2022-09-24T07:15:00.976Z,9.06
2022-09-24T07:16:01.065Z,8.94
2022-09-24T07:17:00.995Z,9.06
2022-09-24T07:18:01.008Z,9.06
2022-09-24T07:19:01.018Z,9.22
2022-09-24T07:20:00.986Z,9.06
2022-09-24T07:21:00.990Z,9.06
2022-09-24T07:22:00.984Z,9.06
2022-09-24T07:23:00.985Z,8.94
2022-09-24T07:24:00.988Z,8.94
2022-09-24T07:25:00.994Z,8.78
2022-09-24T07:26:00.998Z,8.78
2022-09-24T07:27:00.987Z,8.61
2022-09-24T07:28:00.982Z,8.94
2022-09-24T07:29:00.992Z,8.39
2022-09-24T07:30:00.989Z,8.78
2022-09-24T07:31:01.054Z,8.61
2022-09-24T07:32:00.990Z,8.78
2022-09-24T07:33:00.978Z,8.5
2022-09-24T07:34:01.062Z,8.5
2022-09-24T07:35:00.989Z,8.78
2022-09-24T07:36:00.993Z,8.78
2022-09-24T07:37:00.997Z,8.94
2022-09-24T07:38:00.996Z,9.06
2022-09-24T07:39:00.996Z,8.61
2022-09-24T07:40:00.987Z,9.06
2022-09-24T07:41:01.075Z,8.94
2022-09-24T07:42:00.994Z,9.22
2022-09-24T07:43:01.003Z,9.06
2022-09-24T07:44:00.995Z,8.61
2022-09-24T07:45:01.001Z,8.94
2022-09-24T07:46:00.997Z,8.94
2022-09-24T07:47:01.195Z,9.22
2022-09-24T07:48:00.998Z,9.39
2022-09-24T07:49:00.981Z,9.5
2022-09-24T07:50:01.021Z,9.67
2022-09-24T07:51:00.989Z,9.67
2022-09-24T07:52:00.994Z,9.39
2022-09-24T07:53:00.985Z,9.78
2022-09-24T07:54:01.098Z,9.78
2022-09-24T07:55:00.999Z,10.11
2022-09-24T07:56:00.982Z,9.94
2022-09-24T07:57:00.990Z,9.67
2022-09-24T07:58:00.990Z,9.94
2022-09-24T07:59:00.993Z,9.94
2022-09-24T08:00:00.994Z,10.11
2022-09-24T08:01:00.990Z,10.11
2022-09-24T08:02:01.113Z,10.11
2022-09-24T08:03:00.997Z,10.11
2022-09-24T08:04:01.016Z,10.22
2022-09-24T08:05:00.989Z,10.39
2022-09-24T08:06:01.013Z,10.22
2022-09-24T08:07:00.990Z,10.83
2022-09-24T08:08:00.992Z,10.39
2022-09-24T08:09:00.990Z,11
2022-09-24T08:10:00.991Z,10.83
2022-09-24T08:11:00.996Z,10.83
2022-09-24T08:12:00.989Z,10.67
2022-09-24T08:13:00.994Z,11.11
2022-09-24T08:14:00.995Z,11.11
2022-09-24T08:15:00.999Z,11
2022-09-24T08:16:01.021Z,11
2022-09-24T08:17:00.998Z,10.67
2022-09-24T08:18:00.999Z,10.39
2022-09-24T08:19:01.006Z,10.83
2022-09-24T08:20:00.993Z,10.67
2022-09-24T08:21:00.998Z,11
2022-09-24T08:22:01.020Z,11
2022-09-24T08:23:00.990Z,10.67
2022-09-24T08:24:00.993Z,11.11
2022-09-24T08:25:00.996Z,10.83
2022-09-24T08:26:01.005Z,11
2022-09-24T08:27:01.084Z,10.67
2022-09-24T08:28:00.984Z,10.83
2022-09-24T08:29:01.004Z,10.56
2022-09-24T08:30:01.009Z,10.67
2022-09-24T08:31:01.061Z,11
2022-09-24T08:32:00.995Z,11
2022-09-24T08:33:01.001Z,10.67
2022-09-24T08:34:00.993Z,11
2022-09-24T08:35:00.992Z,10.83
2022-09-24T08:36:01.002Z,11.11
2022-09-24T08:37:01.031Z,11.11
2022-09-24T08:38:01.020Z,11.44
2022-09-24T08:39:00.989Z,11.61
2022-09-24T08:40:01.003Z,11.28
2022-09-24T08:41:01.007Z,11.83
2022-09-24T08:42:01.000Z,11.72
2022-09-24T08:43:04.252Z,11.44
2022-09-24T08:44:01.012Z,11.83
2022-09-24T08:45:01.004Z,11.83
2022-09-24T08:46:01.070Z,11.61
2022-09-24T08:47:01.059Z,11.94
2022-09-24T08:48:01.013Z,11.83
2022-09-24T08:49:01.003Z,11.83
2022-09-24T08:50:01.004Z,11.83
2022-09-24T08:51:01.004Z,11.72
2022-09-24T08:52:01.011Z,12.11
2022-09-24T08:53:01.009Z,12.28
2022-09-24T08:54:01.106Z,12.28
2022-09-24T08:55:00.997Z,12.28
2022-09-24T08:56:01.001Z,12.44
2022-09-24T08:57:01.019Z,12.28
2022-09-24T08:58:01.019Z,12.11
2022-09-24T08:59:01.003Z,12.28
2022-09-24T09:00:01.011Z,12.11
2022-09-24T09:01:01.001Z,11.94
2022-09-24T09:02:01.087Z,12.28
2022-09-24T09:03:01.064Z,12.11
2022-09-24T09:04:01.076Z,11.83
2022-09-24T09:05:01.004Z,12.28
2022-09-24T09:06:01.007Z,12.28
2022-09-24T09:07:01.053Z,12.72
2022-09-24T09:08:01.010Z,12.72
2022-09-24T09:09:07.103Z,12.72
2022-09-24T09:10:01.106Z,12.28
2022-09-24T09:11:01.004Z,11.83
2022-09-24T09:12:01.019Z,11.28
2022-09-24T09:13:01.016Z,11.11
2022-09-24T09:14:01.007Z,11
2022-09-24T09:15:01.018Z,11.44
2022-09-24T09:16:01.101Z,11.28
2022-09-24T09:17:01.079Z,11.61
2022-09-24T09:18:01.011Z,11.61
2022-09-24T09:19:01.102Z,11.11
2022-09-24T09:20:01.011Z,10.83
2022-09-24T09:21:01.010Z,11
2022-09-24T09:22:01.017Z,11
2022-09-24T09:23:01.011Z,11
2022-09-24T09:24:01.016Z,10.83
2022-09-24T09:25:03.836Z,11.28
2022-09-24T09:26:01.034Z,11.94
2022-09-24T09:27:01.068Z,11.83
2022-09-24T09:28:01.011Z,11.83
2022-09-24T09:29:01.113Z,11.11
2022-09-24T09:30:01.020Z,11.44
2022-09-24T09:31:01.138Z,11.72
2022-09-24T09:32:01.022Z,11.72
2022-09-24T09:33:01.027Z,11.44
2022-09-24T09:34:01.025Z,12.28
2022-09-24T09:35:01.012Z,12.11
2022-09-24T09:36:01.014Z,11.61
2022-09-24T09:37:01.126Z,11.44
2022-09-24T09:38:01.017Z,11.44
2022-09-24T09:39:01.049Z,11.61
2022-09-24T09:40:01.018Z,11.61
2022-09-24T09:41:01.101Z,11.83
2022-09-24T09:42:01.042Z,12.44
2022-09-24T09:43:01.032Z,12.72
2022-09-24T09:44:01.052Z,12.11
2022-09-24T09:45:01.023Z,12.89
2022-09-24T09:46:01.075Z,12.44
2022-09-24T09:47:01.175Z,12.72
2022-09-24T09:48:01.023Z,12.72
2022-09-24T09:49:01.029Z,12.11
2022-09-24T09:50:01.025Z,12.72
2022-09-24T09:51:01.030Z,12.72
2022-09-24T09:52:01.023Z,12.89
2022-09-24T09:53:01.029Z,13.83
2022-09-24T09:54:01.032Z,14.28
2022-09-24T09:55:01.030Z,14.28
2022-09-24T09:56:01.035Z,14.06
2022-09-24T09:57:01.045Z,14.28
2022-09-24T09:58:01.051Z,14.06
2022-09-24T09:59:01.032Z,14.56
2022-09-24T10:00:01.028Z,14.67
2022-09-24T10:01:01.036Z,14.67
2022-09-24T10:02:01.092Z,14.56
2022-09-24T10:03:01.154Z,14.39
2022-09-24T10:04:01.028Z,14.67
2022-09-24T10:05:01.025Z,14.06
2022-09-24T10:06:01.038Z,14.06
2022-09-24T10:07:01.036Z,13.94
2022-09-24T10:08:01.041Z,14.56
2022-09-24T10:09:01.038Z,14.56
2022-09-24T10:10:01.029Z,14.06
2022-09-24T10:11:01.037Z,13.94
2022-09-24T10:12:01.040Z,13.78
2022-09-24T10:13:01.036Z,13.67
2022-09-24T10:14:01.057Z,13.67
2022-09-24T10:15:01.037Z,13.22
2022-09-24T10:16:01.106Z,13
2022-09-24T10:17:01.044Z,13.61
2022-09-24T10:18:01.041Z,13.56
2022-09-24T10:19:01.044Z,13.56
2022-09-24T10:20:01.041Z,13.67
2022-09-24T10:21:01.042Z,13.39
2022-09-24T10:22:01.041Z,13.39
2022-09-24T10:23:01.037Z,14.28
2022-09-24T10:24:01.175Z,14.44
2022-09-24T10:25:01.044Z,14.44
2022-09-24T10:26:01.041Z,14.44
2022-09-24T10:27:01.050Z,13.83
2022-09-24T10:28:01.053Z,13.39
2022-09-24T10:29:01.056Z,13.67
2022-09-24T10:30:01.069Z,14.78
2022-09-24T10:31:01.153Z,14.61
2022-09-24T10:32:01.073Z,14.28
2022-09-24T10:33:01.054Z,14.89
2022-09-24T10:34:01.056Z,15.17
2022-09-24T10:35:01.104Z,15.44
2022-09-24T10:36:01.052Z,15.61
2022-09-24T10:37:01.073Z,15.61
2022-09-24T10:38:01.064Z,15.78
2022-09-24T10:39:01.043Z,15.28
2022-09-24T10:40:01.047Z,14.78
2022-09-24T10:41:01.107Z,15.17
2022-09-24T10:42:01.040Z,15.17
2022-09-24T10:43:01.039Z,15.06
2022-09-24T10:44:01.040Z,15.61
2022-09-24T10:45:01.052Z,15.61
2022-09-24T10:46:01.209Z,15.78
2022-09-24T10:47:01.221Z,15.89
2022-09-24T10:48:01.054Z,15.89
2022-09-24T10:49:01.045Z,15.89
2022-09-24T10:50:01.041Z,15.61
2022-09-24T10:51:01.038Z,15.44
2022-09-24T10:52:01.052Z,15.61
2022-09-24T10:53:01.044Z,14.78
2022-09-24T10:54:01.044Z,14.78
2022-09-24T10:55:01.052Z,14.44
2022-09-24T10:56:01.043Z,14.28
2022-09-24T10:57:01.053Z,14.28
2022-09-24T10:58:01.051Z,14.78
2022-09-24T10:59:01.047Z,15.44
2022-09-24T11:00:01.054Z,15.61
2022-09-24T11:01:01.056Z,15.61
2022-09-24T11:02:01.135Z,15.44
2022-09-24T11:03:01.075Z,15.78
2022-09-24T11:04:01.052Z,15.78
2022-09-24T11:05:01.061Z,15.28
2022-09-24T11:06:01.060Z,14.61
2022-09-24T11:07:01.068Z,14.61
2022-09-24T11:08:01.072Z,15.28
2022-09-24T11:09:01.064Z,15.06
2022-09-24T11:10:01.055Z,15.17
2022-09-24T11:11:01.058Z,15.06
2022-09-24T11:12:01.059Z,15.44
2022-09-24T11:13:01.062Z,14.78
2022-09-24T11:14:01.049Z,14.28
2022-09-24T11:15:01.064Z,13.67
2022-09-24T11:16:01.102Z,13.83
2022-09-24T11:17:01.081Z,13.56
2022-09-24T11:18:01.133Z,13.56
2022-09-24T11:19:01.063Z,13.67
2022-09-24T11:20:01.064Z,13.39
2022-09-24T11:21:01.065Z,13.56
2022-09-24T11:22:01.070Z,13.67
2022-09-24T11:23:01.066Z,13.83
2022-09-24T11:24:01.065Z,14
2022-09-24T11:25:01.073Z,13.83
2022-09-24T11:26:01.069Z,13.67
2022-09-24T11:27:01.073Z,14.28
2022-09-24T11:28:01.067Z,14.61
2022-09-24T11:29:01.106Z,14.11
2022-09-24T11:30:01.065Z,14.28
2022-09-24T11:31:01.117Z,14.78
2022-09-24T11:32:01.066Z,14.61
2022-09-24T11:33:01.066Z,14.44
2022-09-24T11:34:01.100Z,14.78
2022-09-24T11:35:01.070Z,14.89
2022-09-24T11:36:01.061Z,14.78
2022-09-24T11:37:01.071Z,14.28
2022-09-24T11:38:01.066Z,14.78
2022-09-24T11:39:01.065Z,15.17
2022-09-24T11:40:01.067Z,15.17
2022-09-24T11:41:01.141Z,16.06
2022-09-24T11:42:01.064Z,15.89
2022-09-24T11:43:01.066Z,15.78
2022-09-24T11:44:01.070Z,15.61
2022-09-24T11:45:01.062Z,15.28
2022-09-24T11:46:01.207Z,15.44
2022-09-24T11:47:01.123Z,15.78
2022-09-24T11:48:01.071Z,16.06
2022-09-24T11:49:01.072Z,15.78
2022-09-24T11:50:01.099Z,16.39
2022-09-24T11:51:01.070Z,16.89
2022-09-24T11:52:01.066Z,17
2022-09-24T11:53:01.081Z,16.89
2022-09-24T11:54:01.075Z,17.17
2022-09-24T11:55:01.089Z,17.5
2022-09-24T11:56:01.073Z,17.33
2022-09-24T11:57:01.076Z,17.5
2022-09-24T11:58:01.079Z,17.67
2022-09-24T11:59:01.086Z,17.33
2022-09-24T12:00:01.085Z,17.67
2022-09-24T12:01:01.080Z,17.94
2022-09-24T12:02:01.122Z,17.94
2022-09-24T12:03:01.164Z,17.94
2022-09-24T12:04:01.079Z,17.83
2022-09-24T12:05:01.086Z,17.67
2022-09-24T12:06:01.240Z,17
2022-09-24T12:07:01.090Z,17.17
2022-09-24T12:08:01.083Z,17
2022-09-24T12:09:01.081Z,17.5
2022-09-24T12:10:01.091Z,17
2022-09-24T12:11:01.086Z,16.72
2022-09-24T12:12:01.088Z,15.06
2022-09-24T12:13:01.086Z,15.44
2022-09-24T12:14:01.090Z,15.17
2022-09-24T12:15:01.090Z,16.06
2022-09-24T12:16:01.151Z,15.17
2022-09-24T12:17:01.085Z,14.61
2022-09-24T12:18:01.094Z,14.78
2022-09-24T12:19:01.089Z,14.78
2022-09-24T12:20:01.097Z,14.89
2022-09-24T12:21:01.086Z,15.28
2022-09-24T12:22:01.114Z,15.17
2022-09-24T12:23:01.097Z,15.17
2022-09-24T12:24:02.832Z,15.61
2022-09-24T12:25:01.091Z,15.61
2022-09-24T12:26:01.096Z,15.44
2022-09-24T12:27:01.094Z,16.06
2022-09-24T12:28:01.095Z,15.61
2022-09-24T12:29:01.099Z,15.61
2022-09-24T12:30:01.096Z,15.28
2022-09-24T12:31:01.133Z,15.17
2022-09-24T12:32:01.091Z,15.17
2022-09-24T12:33:01.103Z,15.28
2022-09-24T12:34:01.099Z,15.17
2022-09-24T12:35:01.096Z,15.06
2022-09-24T12:36:01.087Z,15.06
2022-09-24T12:37:01.098Z,15.28
2022-09-24T12:38:01.119Z,15.17
2022-09-24T12:39:01.096Z,14.89
2022-09-24T12:40:01.105Z,15.22
2022-09-24T12:41:01.221Z,15.06
2022-09-24T12:42:01.103Z,15.06
2022-09-24T12:43:01.105Z,15.28
2022-09-24T12:44:01.105Z,15.17
2022-09-24T12:45:01.092Z,15.06
2022-09-24T12:46:01.099Z,15.33
2022-09-24T12:47:01.159Z,15.17
2022-09-24T12:48:01.110Z,15.17
2022-09-24T12:49:01.102Z,14.94
2022-09-24T12:50:01.096Z,14.72
2022-09-24T12:51:01.113Z,14.61
2022-09-24T12:52:01.106Z,14.94
2022-09-24T12:53:01.096Z,14.94
2022-09-24T12:54:01.126Z,14.83
2022-09-24T12:55:01.110Z,15.06
2022-09-24T12:56:01.100Z,14.61
2022-09-24T12:57:01.097Z,14.72
2022-09-24T12:58:01.096Z,14.72
2022-09-24T12:59:01.104Z,14.83
2022-09-24T13:00:01.106Z,14.94
2022-09-24T13:01:01.106Z,14.94
2022-09-24T13:02:01.249Z,14.83
2022-09-24T13:03:01.264Z,15.11
2022-09-24T13:04:01.100Z,15.11
2022-09-24T13:05:01.113Z,15.22
2022-09-24T13:06:01.102Z,14.83
2022-09-24T13:07:01.116Z,14.89
2022-09-24T13:08:01.108Z,14.83
2022-09-24T13:09:01.105Z,14.5